createdAt,value
2022-12-15T00:04:34.196Z,-2.56
2022-12-15T00:09:53.961Z,-2.70
2022-12-15T00:15:14.062Z,-2.73
2022-12-15T00:20:34.518Z,-2.63
2022-12-15T00:25:54.283Z,-2.54
2022-12-15T00:31:17.075Z,-2.43
2022-12-15T00:36:36.920Z,-2.37
2022-12-15T00:41:38.350Z,-2.37
2022-12-15T00:46:54.692Z,-2.30
2022-12-15T00:52:14.513Z,-2.23
2022-12-15T00:57:34.301Z,-2.24
2022-12-15T01:02:54.389Z,-2.24
2022-12-15T01:08:14.530Z,-2.16
2022-12-15T01:13:34.766Z,-2.13
2022-12-15T01:18:54.521Z,-2.16
2022-12-15T01:23:55.892Z,-2.13
2022-12-15T01:28:57.278Z,-2.11
2022-12-15T01:33:58.631Z,-2.15
2022-12-15T01:39:01.046Z,-2.14
2022-12-15T01:44:20.139Z,-2.13
2022-12-15T01:49:25.532Z,-2.14
2022-12-15T01:54:38.702Z,-2.17
2022-12-15T01:59:48.771Z,-2.22
2022-12-15T02:04:52.876Z,-2.26
2022-12-15T02:09:58.107Z,-2.30
2022-12-15T02:15:22.593Z,-2.33
2022-12-15T02:20:42.889Z,-2.46
2022-12-15T02:25:59.503Z,-2.51
2022-12-15T02:31:27.730Z,-2.50
2022-12-15T02:36:36.885Z,-2.48
2022-12-15T02:41:39.583Z,-2.49
2022-12-15T02:46:56.592Z,-2.50
2022-12-15T02:52:20.276Z,-2.54
2022-12-15T02:57:35.232Z,-2.57
2022-12-15T03:02:41.699Z,-2.60
2022-12-15T03:07:43.205Z,-2.71
2022-12-15T03:12:45.114Z,-2.74
2022-12-15T03:17:46.584Z,-2.82
2022-12-15T03:22:47.962Z,-2.88
2022-12-15T03:27:49.406Z,-2.91
2022-12-15T03:32:50.783Z,-2.96
2022-12-15T03:37:53.228Z,-2.96
2022-12-15T03:42:54.637Z,-2.99
2022-12-15T03:47:56.969Z,-3.06
2022-12-15T03:53:02.434Z,-3.11
2022-12-15T03:58:03.817Z,-3.13
2022-12-15T04:03:05.424Z,-3.20
2022-12-15T04:08:06.984Z,-3.29
2022-12-15T04:13:10.793Z,-3.37
2022-12-15T04:18:12.165Z,-3.33
2022-12-15T04:23:14.136Z,-3.30
2022-12-15T04:28:33.869Z,-3.25
2022-12-15T04:33:55.016Z,-3.22
2022-12-15T04:39:16.133Z,-3.11
2022-12-15T04:44:36.675Z,-3.12
2022-12-15T04:49:56.553Z,-3.32
2022-12-15T04:55:16.261Z,-3.23
2022-12-15T05:00:36.154Z,-3.14
2022-12-15T05:05:56.151Z,-3.00
2022-12-15T05:11:18.737Z,-3.12
2022-12-15T05:16:38.533Z,-2.99
2022-12-15T05:21:58.261Z,-2.95
2022-12-15T05:27:18.356Z,-2.91
2022-12-15T05:32:19.715Z,-2.68
2022-12-15T05:37:21.138Z,-2.50
2022-12-15T05:42:22.489Z,-2.38
2022-12-15T05:47:23.846Z,-2.27
2022-12-15T05:52:25.299Z,-2.17
2022-12-15T05:57:26.658Z,-2.09
2022-12-15T06:02:31.098Z,-1.97
2022-12-15T06:07:33.841Z,-1.91
2022-12-15T06:12:35.203Z,-1.77
2022-12-15T06:17:36.604Z,-1.73
2022-12-15T06:22:38.004Z,-1.80
2022-12-15T06:27:39.419Z,-1.72
2022-12-15T06:32:40.800Z,-1.49
2022-12-15T06:37:42.135Z,-1.28
2022-12-15T06:42:43.508Z,-1.12
2022-12-15T06:47:44.895Z,-1.00
2022-12-15T06:52:46.340Z,-1.03
2022-12-15T06:57:48.867Z,-0.99
2022-12-15T07:02:50.882Z,-0.97
2022-12-15T07:07:52.491Z,-0.92
2022-12-15T07:12:56.646Z,-0.70
2022-12-15T07:17:58.042Z,-0.54
2022-12-15T07:23:00.618Z,-0.39
2022-12-15T07:28:02.189Z,-0.32
2022-12-15T07:33:04.730Z,-0.21
2022-12-15T07:38:07.114Z,-0.09
2022-12-15T07:43:08.476Z,-0.06
2022-12-15T07:48:09.919Z,0.01
2022-12-15T07:53:11.290Z,-0.14
2022-12-15T07:58:12.723Z,-0.05
2022-12-15T08:03:14.196Z,0.05
2022-12-15T08:08:15.806Z,0.05
2022-12-15T08:13:52.881Z,0.14
2022-12-15T08:18:39.493Z,0.21
2022-12-15T08:23:41.256Z,0.27
2022-12-15T08:28:43.594Z,0.27
2022-12-15T08:33:46.383Z,0.33
2022-12-15T08:38:48.050Z,0.36
2022-12-15T08:43:50.965Z,0.40
2022-12-15T08:48:55.476Z,0.50
2022-12-15T08:54:00.375Z,0.51
2022-12-15T08:59:02.846Z,0.59
2022-12-15T09:04:04.318Z,0.45
2022-12-15T09:09:08.074Z,0.33
2022-12-15T09:14:09.443Z,0.23
2022-12-15T09:19:11.062Z,0.15
2022-12-15T09:24:22.137Z,0.13
2022-12-15T09:29:27.629Z,0.12
2022-12-15T09:34:29.075Z,0.29
2022-12-15T09:39:30.670Z,0.45
2022-12-15T09:44:32.944Z,0.53
2022-12-15T09:49:54.960Z,0.57
2022-12-15T09:54:58.233Z,0.67
2022-12-15T10:00:09.991Z,0.72
2022-12-15T10:05:20.640Z,0.79
2022-12-15T10:10:30.488Z,0.86
2022-12-15T10:15:45.462Z,0.82
2022-12-15T10:20:55.358Z,0.77
2022-12-15T10:26:16.274Z,0.84
2022-12-15T10:31:30.405Z,0.89
2022-12-15T10:36:31.845Z,0.93
2022-12-15T10:41:33.639Z,0.87
2022-12-15T10:46:35.092Z,0.98
2022-12-15T10:51:54.209Z,1.14
2022-12-15T10:56:57.112Z,1.25
2022-12-15T11:07:47.533Z,1.33
2022-12-15T11:13:17.389Z,1.28
2022-12-15T11:18:51.431Z,1.29
2022-12-15T11:24:16.454Z,1.10
2022-12-15T11:29:39.152Z,1.01
2022-12-15T11:34:45.961Z,0.73
2022-12-15T11:40:19.493Z,1.03
2022-12-15T11:45:31.442Z,1.12
2022-12-15T11:50:59.299Z,1.14
2022-12-15T11:56:28.386Z,1.16
2022-12-15T12:02:08.299Z,1.05
2022-12-15T12:07:42.006Z,0.88
2022-12-15T12:13:13.978Z,1.10
2022-12-15T12:18:46.551Z,1.18
2022-12-15T12:23:58.509Z,1.15
2022-12-15T12:29:13.051Z,1.13
2022-12-15T12:34:23.473Z,1.05
2022-12-15T12:39:25.859Z,1.02
2022-12-15T12:44:37.670Z,1.17
2022-12-15T12:49:56.376Z,1.16
2022-12-15T12:55:05.072Z,1.08
2022-12-15T13:00:20.318Z,1.06
2022-12-15T13:05:29.227Z,0.91
2022-12-15T13:10:38.742Z,0.81
2022-12-15T13:15:45.730Z,0.78
2022-12-15T13:20:57.162Z,0.67
2022-12-15T13:25:59.010Z,0.54
2022-12-15T13:31:24.381Z,0.43
2022-12-15T13:36:38.318Z,0.39
2022-12-15T13:42:15.138Z,0.37
2022-12-15T13:47:23.655Z,0.46
2022-12-15T13:53:16.710Z,0.43
2022-12-15T13:58:02.751Z,0.36
2022-12-15T14:03:06.917Z,0.32
2022-12-15T14:08:15.521Z,0.30
2022-12-15T14:13:36.998Z,0.28
2022-12-15T14:18:39.060Z,0.24
2022-12-15T14:24:10.902Z,0.26
2022-12-15T14:29:06.241Z,0.23
2022-12-15T14:34:29.825Z,0.17
2022-12-15T14:39:43.095Z,0.00
2022-12-15T14:44:49.738Z,-0.02
2022-12-15T14:55:33.266Z,-0.16
2022-12-15T15:00:48.519Z,-0.23
2022-12-15T15:03:10.364Z,-0.08
2022-12-15T15:05:55.124Z,-0.30
2022-12-15T15:11:00.827Z,-0.30
2022-12-15T15:16:07.096Z,-0.34
2022-12-15T15:21:17.111Z,-0.38
2022-12-15T15:26:18.746Z,-0.43
2022-12-15T15:31:40.917Z,-0.50
2022-12-15T15:36:43.305Z,-0.55
2022-12-15T15:41:44.674Z,-0.63
2022-12-15T15:46:49.300Z,-0.83
2022-12-15T15:51:50.683Z,-0.89
2022-12-15T15:56:52.051Z,-0.87
2022-12-15T16:01:55.745Z,-0.94
2022-12-15T16:06:57.253Z,-1.00
2022-12-15T16:11:59.395Z,-1.01
2022-12-15T16:17:00.733Z,-1.14
2022-12-15T16:22:02.462Z,-1.20
2022-12-15T16:27:03.926Z,-1.31
2022-12-15T16:32:06.102Z,-1.37
2022-12-15T16:37:23.780Z,-1.44
2022-12-15T16:42:25.194Z,-1.58
2022-12-15T16:47:27.119Z,-1.75
2022-12-15T16:52:28.506Z,-1.81
2022-12-15T16:57:29.950Z,-1.80
2022-12-15T17:02:31.596Z,-1.85
2022-12-15T17:07:33.220Z,-1.89
2022-12-15T17:12:34.748Z,-1.95
2022-12-15T17:17:36.092Z,-1.98
2022-12-15T17:22:37.756Z,-2.04
2022-12-15T17:27:39.132Z,-2.00
2022-12-15T17:32:40.534Z,-2.01
2022-12-15T17:37:43.420Z,-2.08
2022-12-15T17:42:46.157Z,-2.08
2022-12-15T17:47:48.161Z,-2.14
2022-12-15T17:52:49.798Z,-2.26
2022-12-15T17:57:54.567Z,-2.28
2022-12-15T18:02:57.446Z,-2.36
2022-12-15T18:08:02.607Z,-2.44
2022-12-15T18:13:15.015Z,-2.47
2022-12-15T18:18:18.506Z,-2.46
2022-12-15T18:23:22.226Z,-2.46
2022-12-15T18:28:28.945Z,-2.56
2022-12-15T18:33:30.892Z,-2.56
2022-12-15T18:38:32.570Z,-2.54
2022-12-15T18:43:35.196Z,-2.57
2022-12-15T18:48:37.001Z,-2.65
2022-12-15T18:53:41.005Z,-2.70
2022-12-15T18:58:42.448Z,-2.65
2022-12-15T19:03:43.841Z,-2.70
2022-12-15T19:08:45.426Z,-2.68
2022-12-15T19:13:46.830Z,-2.70
2022-12-15T19:19:06.865Z,-2.72
2022-12-15T19:24:14.922Z,-2.87
2022-12-15T19:29:21.878Z,-2.86
2022-12-15T19:34:26.217Z,-2.88
2022-12-15T19:39:28.667Z,-2.87
2022-12-15T19:44:30.735Z,-2.89
2022-12-15T19:49:32.103Z,-2.87
2022-12-15T19:54:33.459Z,-2.90
2022-12-15T19:59:34.781Z,-2.84
2022-12-15T20:04:36.212Z,-2.77
2022-12-15T20:09:38.006Z,-2.71
2022-12-15T20:14:39.518Z,-2.68
2022-12-15T20:19:41.600Z,-2.57
2022-12-15T20:24:44.436Z,-2.45
2022-12-15T20:29:45.898Z,-2.33
2022-12-15T20:34:47.582Z,-2.29
2022-12-15T20:39:55.561Z,-2.22
2022-12-15T20:44:58.669Z,-2.16
2022-12-15T20:50:00.093Z,-2.15
2022-12-15T20:55:02.926Z,-2.11
2022-12-15T21:00:05.202Z,-2.12
2022-12-15T21:05:07.825Z,-2.09
2022-12-15T21:10:12.357Z,-2.11
2022-12-15T21:15:22.126Z,-2.06
2022-12-15T21:20:23.530Z,-2.05
2022-12-15T21:25:26.669Z,-2.05
2022-12-15T21:30:28.217Z,-2.03
2022-12-15T21:35:31.894Z,-2.02
2022-12-15T21:40:33.620Z,-2.01
2022-12-15T21:45:34.979Z,-1.96
2022-12-15T21:50:38.322Z,-1.91
2022-12-15T21:55:41.032Z,-1.89
2022-12-15T22:00:45.686Z,-1.83
2022-12-15T22:05:47.318Z,-1.74
2022-12-15T22:10:51.136Z,-1.68
2022-12-15T22:15:54.668Z,-1.60
2022-12-15T22:20:56.187Z,-1.56
2022-12-15T22:25:57.684Z,-1.62
2022-12-15T22:31:02.572Z,-1.58
2022-12-15T22:36:04.174Z,-1.52
2022-12-15T22:41:06.842Z,-1.45
2022-12-15T22:46:12.451Z,-1.45
2022-12-15T22:51:16.205Z,-1.47
2022-12-15T22:56:39.269Z,-1.52
2022-12-15T23:01:40.718Z,-1.60
2022-12-15T23:06:42.231Z,-1.63
2022-12-15T23:11:43.963Z,-1.67
2022-12-15T23:16:46.288Z,-1.70
2022-12-15T23:21:47.704Z,-1.68
2022-12-15T23:26:49.112Z,-1.71
2022-12-15T23:31:50.446Z,-1.66
2022-12-15T23:36:52.065Z,-1.65
2022-12-15T23:41:53.422Z,-1.70
2022-12-15T23:46:57.265Z,-1.73
2022-12-15T23:51:58.645Z,-1.72
2022-12-15T23:57:00.017Z,-1.71
